AAL125 KSAN-KLAX
Flight info
| Callsign | AAL125 |
|---|---|
| Flight time | 0h 21m |
| Altitude | 20000 |
| Route | CWARD2 SLI |
| Aircraft | A319/M-SDE3FGHIRWY/LB1 |
Departure
| Time | 2026-04-24 02:21 |
|---|---|
| Airport | San Diego International Airport (KSAN) |
Arrival
| Time | 2026-04-24 02:42 |
|---|---|
| Airport | Los Angeles International Airport (KLAX) |
| Time | Latitude | Longitude | Altitude | Speed | Heading |
|---|---|---|---|---|---|
| 2026-04-24 02:07 | 32.73306 | -117.19574 | 25 ft | 0 kts | 209° |
| 2026-04-24 02:12 | 32.73324 | -117.19561 | 30 ft | 3 kts | 211° |
| 2026-04-24 02:13 | 32.73345 | -117.19547 | 26 ft | 3 kts | 210° |
| 2026-04-24 02:13 | 32.73366 | -117.19533 | 27 ft | 3 kts | 198° |
| 2026-04-24 02:13 | 32.73384 | -117.19530 | 27 ft | 3 kts | 139° |
| 2026-04-24 02:13 | 32.73388 | -117.19534 | 27 ft | 1 kts | 106° |
| 2026-04-24 02:15 | 32.73383 | -117.19513 | 27 ft | 0 kts | 106° |
| 2026-04-24 02:15 | 32.73382 | -117.19509 | 27 ft | 1 kts | 106° |
| 2026-04-24 02:15 | 32.73382 | -117.19508 | 27 ft | 0 kts | 106° |
| 2026-04-24 02:15 | 32.73369 | -117.19443 | 27 ft | 18 kts | 104° |
| 2026-04-24 02:16 | 32.73321 | -117.19245 | 23 ft | 34 kts | 106° |
| 2026-04-24 02:16 | 32.73249 | -117.18953 | 26 ft | 38 kts | 106° |
| 2026-04-24 02:16 | 32.73174 | -117.18647 | 29 ft | 39 kts | 106° |
| 2026-04-24 02:16 | 32.73103 | -117.18351 | 26 ft | 36 kts | 106° |
| 2026-04-24 02:17 | 32.73038 | -117.18083 | 24 ft | 32 kts | 106° |
| 2026-04-24 02:17 | 32.72978 | -117.17836 | 23 ft | 22 kts | 107° |
| 2026-04-24 02:17 | 32.72956 | -117.17675 | 23 ft | 9 kts | 77° |
| 2026-04-24 02:17 | 32.72957 | -117.17672 | 23 ft | 0 kts | 76° |
| 2026-04-24 02:18 | 32.72959 | -117.17660 | 25 ft | 8 kts | 75° |
| 2026-04-24 02:18 | 32.72960 | -117.17656 | 25 ft | 0 kts | 75° |
| 2026-04-24 02:20 | 32.73007 | -117.17614 | 25 ft | 18 kts | 355° |
| 2026-04-24 02:20 | 32.73084 | -117.17854 | 24 ft | 60 kts | 285° |
| 2026-04-24 02:21 | 32.73274 | -117.18640 | 27 ft | 134 kts | 286° |
| 2026-04-24 02:21 | 32.73579 | -117.19904 | 219 ft | 171 kts | 285° |
| 2026-04-24 02:21 | 32.73931 | -117.21337 | 624 ft | 192 kts | 291° |
| 2026-04-24 02:21 | 32.74589 | -117.22776 | 1018 ft | 208 kts | 302° |
| 2026-04-24 02:22 | 32.75448 | -117.24271 | 1419 ft | 228 kts | 305° |
| 2026-04-24 02:22 | 32.76383 | -117.25826 | 2120 ft | 233 kts | 306° |
| 2026-04-24 02:22 | 32.77327 | -117.27400 | 2968 ft | 236 kts | 305° |
| 2026-04-24 02:22 | 32.78286 | -117.29016 | 3696 ft | 243 kts | 304° |
| 2026-04-24 02:23 | 32.79253 | -117.30664 | 4468 ft | 248 kts | 304° |
| 2026-04-24 02:23 | 32.80252 | -117.32359 | 5257 ft | 252 kts | 306° |
| 2026-04-24 02:23 | 32.81317 | -117.34039 | 6102 ft | 254 kts | 307° |
| 2026-04-24 02:23 | 32.82408 | -117.35704 | 6921 ft | 256 kts | 307° |
| 2026-04-24 02:24 | 32.83505 | -117.37376 | 7702 ft | 258 kts | 307° |
| 2026-04-24 02:24 | 32.84608 | -117.39064 | 8487 ft | 259 kts | 306° |
| 2026-04-24 02:24 | 32.85716 | -117.40772 | 9266 ft | 261 kts | 306° |
| 2026-04-24 02:24 | 32.86832 | -117.42500 | 9823 ft | 265 kts | 305° |
| 2026-04-24 02:25 | 32.87956 | -117.44241 | 9965 ft | 264 kts | 305° |
| 2026-04-24 02:25 | 32.89093 | -117.46001 | 10081 ft | 274 kts | 305° |
| 2026-04-24 02:25 | 32.90285 | -117.47855 | 10242 ft | 288 kts | 305° |
| 2026-04-24 02:25 | 32.91515 | -117.49773 | 10598 ft | 295 kts | 305° |
| 2026-04-24 02:26 | 32.92766 | -117.51718 | 11350 ft | 297 kts | 305° |
| 2026-04-24 02:26 | 32.94029 | -117.53679 | 12173 ft | 299 kts | 305° |
| 2026-04-24 02:26 | 32.95303 | -117.55655 | 13010 ft | 302 kts | 305° |
| 2026-04-24 02:26 | 32.96561 | -117.57615 | 13491 ft | 301 kts | 304° |
| 2026-04-24 02:27 | 32.97839 | -117.59612 | 12871 ft | 309 kts | 305° |
| 2026-04-24 02:27 | 32.99161 | -117.61682 | 12110 ft | 318 kts | 305° |
| 2026-04-24 02:27 | 33.00522 | -117.63810 | 11376 ft | 326 kts | 305° |
| 2026-04-24 02:27 | 33.01913 | -117.65982 | 10646 ft | 332 kts | 305° |
| 2026-04-24 02:28 | 33.03320 | -117.68176 | 10149 ft | 331 kts | 306° |
| 2026-04-24 02:28 | 33.04720 | -117.70362 | 9997 ft | 336 kts | 306° |
| 2026-04-24 02:28 | 33.06168 | -117.72575 | 9982 ft | 340 kts | 309° |
| 2026-04-24 02:28 | 33.07902 | -117.74514 | 10002 ft | 344 kts | 317° |
| 2026-04-24 02:29 | 33.09733 | -117.76370 | 9987 ft | 345 kts | 317° |
| 2026-04-24 02:29 | 33.11560 | -117.78220 | 9988 ft | 345 kts | 317° |
| 2026-04-24 02:29 | 33.13389 | -117.80078 | 9988 ft | 345 kts | 317° |
| 2026-04-24 02:29 | 33.15213 | -117.81938 | 9988 ft | 345 kts | 317° |
| 2026-04-24 02:30 | 33.17038 | -117.83800 | 9991 ft | 345 kts | 317° |
| 2026-04-24 02:30 | 33.18958 | -117.85521 | 9987 ft | 348 kts | 328° |
| 2026-04-24 02:30 | 33.21201 | -117.86635 | 9993 ft | 351 kts | 342° |
| 2026-04-24 02:30 | 33.23597 | -117.87247 | 9995 ft | 352 kts | 346° |
| 2026-04-24 02:31 | 33.25968 | -117.87828 | 9988 ft | 353 kts | 345° |
| 2026-04-24 02:31 | 33.28369 | -117.88421 | 9988 ft | 353 kts | 345° |
| 2026-04-24 02:31 | 33.30774 | -117.89019 | 9988 ft | 352 kts | 345° |
| 2026-04-24 02:31 | 33.33175 | -117.89618 | 9982 ft | 353 kts | 345° |
| 2026-04-24 02:32 | 33.35580 | -117.90221 | 9983 ft | 353 kts | 345° |
| 2026-04-24 02:32 | 33.37985 | -117.90825 | 9980 ft | 352 kts | 345° |
| 2026-04-24 02:32 | 33.40339 | -117.91603 | 9980 ft | 351 kts | 341° |
| 2026-04-24 02:32 | 33.42680 | -117.92440 | 9984 ft | 351 kts | 340° |
| 2026-04-24 02:33 | 33.45009 | -117.93291 | 9974 ft | 350 kts | 340° |
| 2026-04-24 02:33 | 33.47336 | -117.94150 | 9975 ft | 350 kts | 340° |
| 2026-04-24 02:33 | 33.49665 | -117.95008 | 9975 ft | 350 kts | 340° |
| 2026-04-24 02:33 | 33.51991 | -117.95861 | 9973 ft | 350 kts | 340° |
| 2026-04-24 02:34 | 33.54287 | -117.96699 | 9975 ft | 350 kts | 340° |
| 2026-04-24 02:34 | 33.56614 | -117.97549 | 9973 ft | 350 kts | 340° |
| 2026-04-24 02:34 | 33.58946 | -117.98397 | 9972 ft | 350 kts | 340° |
| 2026-04-24 02:34 | 33.61275 | -117.99244 | 9968 ft | 349 kts | 340° |
| 2026-04-24 02:35 | 33.63588 | -118.00084 | 9530 ft | 346 kts | 341° |
| 2026-04-24 02:35 | 33.65887 | -118.00920 | 8947 ft | 344 kts | 341° |
| 2026-04-24 02:35 | 33.68175 | -118.01753 | 8383 ft | 342 kts | 341° |
| 2026-04-24 02:35 | 33.70442 | -118.02582 | 7844 ft | 340 kts | 341° |
| 2026-04-24 02:36 | 33.72691 | -118.03417 | 7310 ft | 337 kts | 341° |
| 2026-04-24 02:36 | 33.74929 | -118.04287 | 7039 ft | 335 kts | 341° |
| 2026-04-24 02:36 | 33.77127 | -118.05155 | 6960 ft | 336 kts | 341° |
| 2026-04-24 02:36 | 33.79352 | -118.06036 | 6972 ft | 336 kts | 341° |
| 2026-04-24 02:37 | 33.81560 | -118.06912 | 6637 ft | 333 kts | 341° |
| 2026-04-24 02:37 | 33.83751 | -118.07806 | 6125 ft | 331 kts | 341° |
| 2026-04-24 02:37 | 33.85910 | -118.08708 | 5800 ft | 322 kts | 341° |
| 2026-04-24 02:37 | 33.87983 | -118.09573 | 5667 ft | 308 kts | 341° |
| 2026-04-24 02:38 | 33.89966 | -118.10399 | 5574 ft | 296 kts | 341° |
| 2026-04-24 02:38 | 33.91867 | -118.11229 | 5442 ft | 284 kts | 335° |
| 2026-04-24 02:38 | 33.93377 | -118.12660 | 5319 ft | 274 kts | 307° |
| 2026-04-24 02:38 | 33.94136 | -118.14662 | 5194 ft | 255 kts | 284° |
| 2026-04-24 02:39 | 33.94498 | -118.16711 | 4569 ft | 253 kts | 281° |
| 2026-04-24 02:39 | 33.94837 | -118.18839 | 3447 ft | 264 kts | 281° |
| 2026-04-24 02:39 | 33.95201 | -118.21038 | 2513 ft | 266 kts | 281° |
| 2026-04-24 02:39 | 33.95453 | -118.23145 | 2189 ft | 242 kts | 267° |
| 2026-04-24 02:40 | 33.95277 | -118.25070 | 2072 ft | 225 kts | 262° |
| 2026-04-24 02:40 | 33.94988 | -118.26895 | 1988 ft | 220 kts | 257° |
| 2026-04-24 02:40 | 33.94679 | -118.28691 | 1733 ft | 219 kts | 260° |
| 2026-04-24 02:40 | 33.94449 | -118.30524 | 1507 ft | 221 kts | 261° |
| 2026-04-24 02:41 | 33.94262 | -118.32346 | 1293 ft | 220 kts | 262° |
| 2026-04-24 02:41 | 33.94102 | -118.34148 | 977 ft | 219 kts | 264° |
| 2026-04-24 02:41 | 33.93961 | -118.35969 | 582 ft | 216 kts | 264° |
| 2026-04-24 02:41 | 33.93799 | -118.37747 | 282 ft | 210 kts | 262° |
| 2026-04-24 02:42 | 33.93619 | -118.39423 | 132 ft | 190 kts | 262° |
| 2026-04-24 02:42 | 33.93496 | -118.40588 | 126 ft | 65 kts | 263° |
| 2026-04-24 02:42 | 33.93482 | -118.40921 | 126 ft | 30 kts | 275° |
| 2026-04-24 02:42 | 33.93525 | -118.41127 | 123 ft | 21 kts | 295° |
| 2026-04-24 02:43 | 33.93583 | -118.41236 | 126 ft | 14 kts | 323° |
| 2026-04-24 02:43 | 33.93719 | -118.41271 | 123 ft | 22 kts | 5° |
| 2026-04-24 02:43 | 33.93764 | -118.41158 | 126 ft | 14 kts | 86° |
| 2026-04-24 02:43 | 33.93774 | -118.41028 | 126 ft | 16 kts | 84° |
| 2026-04-24 02:44 | 33.93808 | -118.40923 | 124 ft | 13 kts | 15° |
| 2026-04-24 02:44 | 33.93874 | -118.40850 | 126 ft | 18 kts | 66° |
| 2026-04-24 02:44 | 33.93948 | -118.40813 | 123 ft | 8 kts | 352° |
| 2026-04-24 02:44 | 33.93998 | -118.40813 | 126 ft | 8 kts | 23° |
| 2026-04-24 02:45 | 33.94002 | -118.40792 | 124 ft | 1 kts | 123° |
| 2026-04-24 02:45 | 33.93978 | -118.40752 | 124 ft | 1 kts | 86° |
| 2026-04-24 02:45 | 33.93980 | -118.40744 | 125 ft | 0 kts | 81° |